createdAt,value
2023-02-26T00:01:40.240Z,98922.11
2023-02-26T00:04:09.431Z,98925.48
2023-02-26T00:06:51.678Z,98929.20
2023-02-26T00:09:20.234Z,98933.93
2023-02-26T00:11:49.479Z,98936.63
2023-02-26T00:14:18.915Z,98937.48
2023-02-26T00:16:50.913Z,98945.73
2023-02-26T00:19:19.509Z,98950.29
2023-02-26T00:21:48.591Z,98954.67
2023-02-26T00:24:16.559Z,98961.93
2023-02-26T00:26:44.636Z,98969.84
2023-02-26T00:29:13.799Z,98971.86
2023-02-26T00:31:42.724Z,98974.73
2023-02-26T00:34:13.687Z,98977.77
2023-02-26T00:36:50.656Z,98981.65
2023-02-26T00:39:27.536Z,98981.46
2023-02-26T00:41:56.356Z,98982.13
2023-02-26T00:44:25.574Z,98984.16
2023-02-26T00:47:00.685Z,98988.04
2023-02-26T00:49:46.570Z,98993.92
2023-02-26T00:52:20.241Z,99001.65
2023-02-26T00:54:48.163Z,99001.14
2023-02-26T00:57:16.143Z,99002.64
2023-02-26T00:59:44.661Z,99006.98
2023-02-26T01:02:12.630Z,99006.84
2023-02-26T01:04:42.911Z,99012.52
2023-02-26T01:07:11.440Z,99016.23
2023-02-26T01:09:40.188Z,99019.59
2023-02-26T01:12:12.695Z,99014.37
2023-02-26T01:14:43.244Z,99025.15
2023-02-26T01:17:18.169Z,99027.35
2023-02-26T01:19:52.233Z,99027.52
2023-02-26T01:22:25.289Z,99032.39
2023-02-26T01:25:01.116Z,99040.98
2023-02-26T01:27:29.847Z,99041.81
2023-02-26T01:29:58.682Z,99047.35
2023-02-26T01:32:35.669Z,99056.10
2023-02-26T01:35:16.527Z,99059.63
2023-02-26T01:37:52.344Z,99065.35
2023-02-26T01:41:02.843Z,99071.41
2023-02-26T01:43:38.383Z,99081.34
2023-02-26T01:46:16.002Z,99087.25
2023-02-26T01:48:50.368Z,99090.27
2023-02-26T01:51:19.977Z,99094.31
2023-02-26T01:53:48.771Z,99097.15
2023-02-26T01:56:19.257Z,99103.88
2023-02-26T01:58:50.351Z,99110.43
2023-02-26T02:01:18.327Z,99108.90
2023-02-26T02:03:46.635Z,99115.27
2023-02-26T02:06:21.248Z,99122.66
2023-02-26T02:08:49.424Z,99132.75
2023-02-26T02:11:17.566Z,99140.83
2023-02-26T02:13:59.473Z,99148.75
2023-02-26T02:16:36.907Z,99154.98
2023-02-26T02:19:23.870Z,99163.23
2023-02-26T02:22:27.659Z,99169.95
2023-02-26T02:25:15.409Z,99170.94
2023-02-26T02:27:53.022Z,99181.54
2023-02-26T02:30:40.514Z,99187.25
2023-02-26T02:33:15.046Z,99193.98
2023-02-26T02:35:48.991Z,99201.91
2023-02-26T02:38:23.528Z,99204.61
2023-02-26T02:40:57.754Z,99207.66
2023-02-26T02:43:31.631Z,99208.70
2023-02-26T02:46:04.152Z,99213.06
2023-02-26T02:48:36.837Z,99210.56
2023-02-26T02:51:09.655Z,99212.43
2023-02-26T02:53:43.687Z,99212.59
2023-02-26T02:56:18.308Z,99219.35
2023-02-26T02:58:52.497Z,99220.73
2023-02-26T03:01:26.065Z,99223.11
2023-02-26T03:03:59.720Z,99223.29
2023-02-26T03:06:27.919Z,99226.87
2023-02-26T03:08:56.162Z,99230.27
2023-02-26T03:11:24.155Z,99233.82
2023-02-26T03:13:53.342Z,99237.20
2023-02-26T03:16:49.117Z,99246.30
2023-02-26T03:19:26.176Z,99254.20
2023-02-26T03:22:01.576Z,99264.15
2023-02-26T03:24:51.737Z,99271.89
2023-02-26T03:27:26.245Z,99273.89
2023-02-26T03:29:59.879Z,99279.27
2023-02-26T03:32:34.157Z,99289.20
2023-02-26T03:35:08.018Z,99289.86
2023-02-26T03:37:39.229Z,99292.35
2023-02-26T03:40:16.239Z,99297.39
2023-02-26T03:42:49.106Z,99301.75
2023-02-26T03:45:21.965Z,99308.33
2023-02-26T03:47:53.611Z,99313.57
2023-02-26T03:50:29.554Z,99313.59
2023-02-26T03:53:17.800Z,99319.69
2023-02-26T03:55:56.262Z,99318.20
2023-02-26T03:58:38.033Z,99324.78
2023-02-26T04:01:21.890Z,99328.86
2023-02-26T04:03:59.774Z,99328.39
2023-02-26T04:06:29.095Z,99329.91
2023-02-26T04:08:57.695Z,99334.65
2023-02-26T04:11:27.268Z,99337.20
2023-02-26T04:13:55.298Z,99340.05
2023-02-26T04:16:23.911Z,99341.07
2023-02-26T04:18:52.019Z,99347.80
2023-02-26T04:21:23.175Z,99355.86
2023-02-26T04:23:51.260Z,99362.09
2023-02-26T04:26:19.294Z,99367.18
2023-02-26T04:28:47.374Z,99374.27
2023-02-26T04:31:15.563Z,99377.81
2023-02-26T04:33:43.862Z,99375.63
2023-02-26T04:36:11.872Z,99376.98
2023-02-26T04:38:39.961Z,99379.19
2023-02-26T04:41:08.069Z,99381.08
2023-02-26T04:43:37.069Z,99384.80
2023-02-26T04:46:40.335Z,99384.64
2023-02-26T04:49:08.769Z,99386.16
2023-02-26T04:51:37.080Z,99391.23
2023-02-26T04:54:05.875Z,99391.77
2023-02-26T04:56:33.883Z,99395.33
2023-02-26T04:59:02.329Z,99402.25
2023-02-26T05:01:31.358Z,99406.96
2023-02-26T05:04:00.685Z,99409.13
2023-02-26T05:06:28.734Z,99413.45
2023-02-26T05:08:56.677Z,99412.23
2023-02-26T05:11:24.720Z,99413.73
2023-02-26T05:13:52.707Z,99419.42
2023-02-26T05:16:20.886Z,99427.31
2023-02-26T05:18:49.100Z,99435.21
2023-02-26T05:21:17.076Z,99441.95
2023-02-26T05:23:45.064Z,99446.48
2023-02-26T05:26:13.070Z,99449.19
2023-02-26T05:28:45.095Z,99455.73
2023-02-26T05:31:13.433Z,99458.27
2023-02-26T05:33:42.412Z,99462.46
2023-02-26T05:36:12.705Z,99469.20
2023-02-26T05:38:40.671Z,99472.01
2023-02-26T05:41:08.683Z,99477.70
2023-02-26T05:43:36.634Z,99485.08
2023-02-26T05:46:05.090Z,99490.45
2023-02-26T05:48:33.086Z,99496.31
2023-02-26T05:51:02.242Z,99505.36
2023-02-26T05:53:30.121Z,99516.20
2023-02-26T05:55:58.106Z,99522.84
2023-02-26T05:58:26.200Z,99531.67
2023-02-26T06:00:54.167Z,99536.27
2023-02-26T06:03:22.251Z,99538.05
2023-02-26T06:05:50.236Z,99543.34
2023-02-26T06:08:18.186Z,99549.85
2023-02-26T06:10:46.110Z,99554.33
2023-02-26T06:13:14.080Z,99559.63
2023-02-26T06:15:42.162Z,99563.10
2023-02-26T06:18:10.154Z,99566.73
2023-02-26T06:20:38.206Z,99570.34
2023-02-26T06:23:06.105Z,99574.13
2023-02-26T06:25:34.108Z,99577.42
2023-02-26T06:28:02.139Z,99586.77
2023-02-26T06:30:30.125Z,99593.93
2023-02-26T06:32:58.228Z,99599.23
2023-02-26T06:35:27.871Z,99604.25
2023-02-26T06:37:55.958Z,99608.63
2023-02-26T06:40:23.905Z,99611.81
2023-02-26T06:42:51.858Z,99618.72
2023-02-26T06:45:19.798Z,99623.62
2023-02-26T06:47:47.762Z,99624.00
2023-02-26T06:50:16.012Z,99629.42
2023-02-26T06:52:43.932Z,99633.31
2023-02-26T06:55:13.044Z,99634.38
2023-02-26T06:57:41.162Z,99639.96
2023-02-26T07:00:11.349Z,99646.90
2023-02-26T07:02:39.452Z,99649.46
2023-02-26T07:05:09.258Z,99653.06
2023-02-26T07:07:37.242Z,99659.31
2023-02-26T07:10:06.882Z,99666.41
2023-02-26T07:12:34.567Z,99670.68
2023-02-26T07:15:02.483Z,99674.95
2023-02-26T07:17:30.611Z,99681.98
2023-02-26T07:19:58.557Z,99686.59
2023-02-26T07:22:26.641Z,99688.33
2023-02-26T07:24:55.478Z,99695.67
2023-02-26T07:27:23.414Z,99695.24
2023-02-26T07:29:51.492Z,99695.69
2023-02-26T07:32:19.436Z,99703.52
2023-02-26T07:34:47.729Z,99705.13
2023-02-26T07:37:15.674Z,99710.04
2023-02-26T07:39:43.790Z,99715.10
2023-02-26T07:42:12.251Z,99724.88
2023-02-26T07:44:43.108Z,99726.88
2023-02-26T07:47:11.224Z,99729.02
2023-02-26T07:49:39.692Z,99736.23
2023-02-26T07:52:08.021Z,99737.23
2023-02-26T07:54:36.619Z,99742.18
2023-02-26T07:57:05.455Z,99746.14
2023-02-26T07:59:33.456Z,99751.11
2023-02-26T08:02:01.555Z,99754.52
2023-02-26T08:04:32.411Z,99762.18
2023-02-26T08:07:01.082Z,99764.05
2023-02-26T08:09:30.037Z,99769.52
2023-02-26T08:11:58.274Z,99770.77
2023-02-26T08:14:26.282Z,99776.27
2023-02-26T08:16:54.204Z,99777.04
2023-02-26T08:19:22.302Z,99782.98
2023-02-26T08:21:50.887Z,99789.02
2023-02-26T08:24:18.950Z,99794.59
2023-02-26T08:26:47.168Z,99801.35
2023-02-26T08:29:15.290Z,99808.63
2023-02-26T08:31:43.393Z,99805.74
2023-02-26T08:34:11.642Z,99811.63
2023-02-26T08:36:40.076Z,99811.43
2023-02-26T08:39:08.026Z,99821.66
2023-02-26T08:41:36.047Z,99824.42
2023-02-26T08:44:04.853Z,99827.02
2023-02-26T08:46:32.847Z,99828.17
2023-02-26T08:49:01.008Z,99833.96
2023-02-26T08:51:29.046Z,99843.20
2023-02-26T08:53:56.999Z,99844.57
2023-02-26T08:56:25.350Z,99857.08
2023-02-26T08:58:53.756Z,99856.61
2023-02-26T09:01:21.765Z,99860.47
2023-02-26T09:03:49.759Z,99868.43
2023-02-26T09:06:17.668Z,99873.50
2023-02-26T09:08:45.619Z,99879.27
2023-02-26T09:11:13.586Z,99884.51
2023-02-26T09:13:42.304Z,99887.61
2023-02-26T09:16:10.895Z,99895.77
2023-02-26T09:18:39.119Z,99898.02
2023-02-26T09:21:07.115Z,99900.06
2023-02-26T09:23:35.462Z,99905.00
2023-02-26T09:26:03.642Z,99911.30
2023-02-26T09:28:31.639Z,99914.34
2023-02-26T09:30:59.640Z,99913.61
2023-02-26T09:33:27.745Z,99916.76
2023-02-26T09:35:55.717Z,99920.94
2023-02-26T09:38:23.978Z,99922.27
2023-02-26T09:40:58.158Z,99930.11
2023-02-26T09:43:58.704Z,99932.20
2023-02-26T09:46:37.853Z,99938.02
2023-02-26T09:49:17.090Z,99941.97
2023-02-26T09:51:50.202Z,99948.95
2023-02-26T09:54:22.276Z,99956.73
2023-02-26T09:56:51.726Z,99964.02
2023-02-26T09:59:20.023Z,99969.14
2023-02-26T10:01:55.868Z,99966.67
2023-02-26T10:04:42.815Z,99969.94
2023-02-26T10:07:21.126Z,99973.83
2023-02-26T10:10:02.772Z,99973.03
2023-02-26T10:12:34.844Z,99978.77
2023-02-26T10:15:11.903Z,99981.13
2023-02-26T10:17:50.036Z,99984.29
2023-02-26T10:20:23.670Z,99989.38
2023-02-26T10:23:00.478Z,99985.02
2023-02-26T10:25:32.914Z,99989.92
2023-02-26T10:28:08.954Z,99990.95
2023-02-26T10:30:44.432Z,99997.09
2023-02-26T10:33:20.664Z,100003.03
2023-02-26T10:35:53.081Z,100003.25
2023-02-26T10:38:25.986Z,100009.77
2023-02-26T10:41:01.498Z,100015.97
2023-02-26T10:43:35.316Z,100020.48
2023-02-26T10:46:17.103Z,100022.89
2023-02-26T10:49:00.954Z,100028.85
2023-02-26T10:51:35.996Z,100030.31
2023-02-26T10:54:13.059Z,100033.28
2023-02-26T10:56:41.127Z,100037.48
2023-02-26T10:59:10.316Z,100040.87
2023-02-26T11:01:38.686Z,100041.64
2023-02-26T11:04:12.285Z,100047.10
2023-02-26T11:06:44.984Z,100048.88
2023-02-26T11:09:20.565Z,100050.30
2023-02-26T11:11:51.432Z,100055.09
2023-02-26T11:14:21.782Z,100056.20
2023-02-26T11:16:53.144Z,100058.50
2023-02-26T11:19:27.154Z,100061.92
2023-02-26T11:21:56.144Z,100065.90
2023-02-26T11:24:33.500Z,100069.88
2023-02-26T11:27:04.451Z,100068.45
2023-02-26T11:29:38.139Z,100074.11
2023-02-26T11:32:07.282Z,100077.21
2023-02-26T11:34:35.963Z,100084.52
2023-02-26T11:37:06.209Z,100085.27
2023-02-26T11:39:38.394Z,100089.22
2023-02-26T11:42:06.529Z,100088.94
2023-02-26T11:44:40.565Z,100094.67
2023-02-26T11:47:14.519Z,100094.66
2023-02-26T11:49:45.032Z,100101.17
2023-02-26T11:52:27.476Z,100106.52
2023-02-26T11:55:00.571Z,100108.84
2023-02-26T11:57:30.775Z,100111.05
2023-02-26T12:00:00.933Z,100112.38
2023-02-26T12:02:34.798Z,100114.73
2023-02-26T12:05:06.617Z,100120.27
2023-02-26T12:07:35.008Z,100124.04
2023-02-26T12:10:02.951Z,100128.62
2023-02-26T12:12:45.819Z,100134.77
2023-02-26T12:15:31.685Z,100138.85
2023-02-26T12:18:27.670Z,100141.58
2023-02-26T12:21:00.492Z,100144.88
2023-02-26T12:24:02.853Z,100150.86
2023-02-26T12:26:33.956Z,100150.96
2023-02-26T12:29:25.446Z,100151.88
2023-02-26T12:32:23.948Z,100158.11
2023-02-26T12:35:28.529Z,100159.63
2023-02-26T12:38:15.439Z,100158.95
2023-02-26T12:41:15.948Z,100161.81
2023-02-26T12:43:49.596Z,100161.11
2023-02-26T12:46:43.389Z,100162.73
2023-02-26T12:49:35.973Z,100166.93
2023-02-26T12:52:22.652Z,100171.27
2023-02-26T12:55:08.367Z,100172.77
2023-02-26T12:57:53.930Z,100175.49
2023-02-26T13:00:30.933Z,100176.17
2023-02-26T13:03:38.007Z,100179.87
2023-02-26T13:06:44.164Z,100176.33
2023-02-26T13:09:26.932Z,100180.66
2023-02-26T13:12:08.981Z,100186.64
2023-02-26T13:14:48.756Z,100189.11
2023-02-26T13:17:26.814Z,100189.04
2023-02-26T13:19:59.753Z,100194.70
2023-02-26T13:22:32.207Z,100195.42
2023-02-26T13:25:04.070Z,100198.30
2023-02-26T13:27:37.356Z,100199.43
2023-02-26T13:30:19.740Z,100199.25
2023-02-26T13:32:50.640Z,100199.45
2023-02-26T13:35:23.831Z,100197.30
2023-02-26T13:37:55.731Z,100201.05
2023-02-26T13:40:41.261Z,100203.91
2023-02-26T13:43:16.629Z,100209.35
2023-02-26T13:45:53.267Z,100213.13
2023-02-26T13:48:35.202Z,100215.05
2023-02-26T13:51:08.645Z,100218.13
2023-02-26T13:53:55.025Z,100213.91
2023-02-26T13:56:53.842Z,100216.41
2023-02-26T13:59:37.749Z,100220.16
2023-02-26T14:02:46.117Z,100227.83
2023-02-26T14:05:51.323Z,100230.41
2023-02-26T14:08:25.923Z,100236.56
2023-02-26T14:10:59.720Z,100233.94
2023-02-26T14:13:33.794Z,100231.15
2023-02-26T14:16:12.578Z,100232.73
2023-02-26T14:18:50.739Z,100234.66
2023-02-26T14:21:46.714Z,100242.04
2023-02-26T14:24:16.492Z,100238.03
2023-02-26T14:26:48.923Z,100246.36
2023-02-26T14:29:22.131Z,100249.06
2023-02-26T14:32:14.433Z,100252.63
2023-02-26T14:34:50.769Z,100259.23
2023-02-26T14:37:22.769Z,100260.42
2023-02-26T14:39:57.283Z,100264.30
2023-02-26T14:42:33.665Z,100266.79
2023-02-26T14:45:10.234Z,100267.92
2023-02-26T14:47:38.565Z,100268.59
2023-02-26T14:50:14.465Z,100273.11
2023-02-26T14:52:56.936Z,100273.02
2023-02-26T14:55:41.111Z,100283.12
2023-02-26T14:58:28.111Z,100280.83
2023-02-26T15:01:19.441Z,100280.25
2023-02-26T15:04:09.396Z,100284.40
2023-02-26T15:06:58.778Z,100286.04
2023-02-26T15:09:35.933Z,100284.60
2023-02-26T15:12:22.331Z,100285.03
2023-02-26T15:15:19.032Z,100291.59
2023-02-26T15:18:07.085Z,100291.89
2023-02-26T15:20:43.239Z,100295.66
2023-02-26T15:23:25.698Z,100301.96
2023-02-26T15:25:56.574Z,100302.00
2023-02-26T15:28:28.928Z,100307.75
2023-02-26T15:31:00.773Z,100308.78
2023-02-26T15:33:29.742Z,100315.04
2023-02-26T15:35:59.412Z,100319.96
2023-02-26T15:38:28.371Z,100323.18
2023-02-26T15:41:02.385Z,100329.26
2023-02-26T15:43:31.119Z,100334.96
2023-02-26T15:46:02.423Z,100339.33
2023-02-26T15:48:36.836Z,100343.02
2023-02-26T15:51:08.139Z,100345.85
2023-02-26T15:53:40.504Z,100348.86
2023-02-26T15:56:11.991Z,100348.45
2023-02-26T15:58:42.900Z,100353.00
2023-02-26T16:01:16.791Z,100361.08
2023-02-26T16:03:45.512Z,100362.55
2023-02-26T16:06:18.067Z,100365.54
2023-02-26T16:08:46.313Z,100372.05
2023-02-26T16:11:19.770Z,100377.05
2023-02-26T16:13:51.021Z,100377.84
2023-02-26T16:16:25.792Z,100383.56
2023-02-26T16:18:54.877Z,100388.80
2023-02-26T16:21:29.173Z,100392.98
2023-02-26T16:23:58.879Z,100396.13
2023-02-26T16:26:31.615Z,100396.61
2023-02-26T16:29:02.782Z,100397.23
2023-02-26T16:31:34.647Z,100402.47
2023-02-26T16:34:05.033Z,100404.80
2023-02-26T16:36:39.733Z,100408.48
2023-02-26T16:39:19.246Z,100409.29
2023-02-26T16:42:00.443Z,100416.74
2023-02-26T16:44:57.188Z,100419.57
2023-02-26T16:47:28.615Z,100421.37
2023-02-26T16:49:57.313Z,100427.91
2023-02-26T16:52:26.514Z,100428.91
2023-02-26T16:54:58.997Z,100435.82
2023-02-26T16:57:34.516Z,100436.29
2023-02-26T17:00:09.443Z,100438.12
2023-02-26T17:02:38.678Z,100442.16
2023-02-26T17:05:16.903Z,100446.36
2023-02-26T17:07:52.045Z,100451.05
2023-02-26T17:10:22.495Z,100456.76
2023-02-26T17:12:52.861Z,100457.94
2023-02-26T17:15:29.566Z,100462.83
2023-02-26T17:17:58.362Z,100469.76
2023-02-26T17:20:28.066Z,100475.33
2023-02-26T17:22:56.945Z,100478.36
2023-02-26T17:25:31.362Z,100481.05
2023-02-26T17:27:59.521Z,100481.02
2023-02-26T17:30:31.454Z,100484.21
2023-02-26T17:33:00.065Z,100486.04
2023-02-26T17:35:30.677Z,100492.41
2023-02-26T17:38:00.101Z,100499.98
2023-02-26T17:40:31.133Z,100500.46
2023-02-26T17:42:59.386Z,100502.31
2023-02-26T17:45:28.577Z,100509.05
2023-02-26T17:47:57.864Z,100512.95
2023-02-26T17:50:35.749Z,100512.62
2023-02-26T17:53:04.189Z,100516.33
2023-02-26T17:55:35.036Z,100521.36
2023-02-26T17:58:03.534Z,100523.02
2023-02-26T18:00:33.749Z,100531.63
2023-02-26T18:03:02.938Z,100531.27
2023-02-26T18:05:32.709Z,100534.30
2023-02-26T18:08:00.681Z,100540.36
2023-02-26T18:10:28.715Z,100539.67
2023-02-26T18:12:56.981Z,100541.48
2023-02-26T18:15:26.232Z,100543.94
2023-02-26T18:17:54.373Z,100546.92
2023-02-26T18:20:22.782Z,100548.88
2023-02-26T18:22:51.159Z,100552.92
2023-02-26T18:25:20.202Z,100552.59
2023-02-26T18:27:54.121Z,100557.15
2023-02-26T18:30:25.527Z,100559.98
2023-02-26T18:32:53.622Z,100564.20
2023-02-26T18:35:22.577Z,100561.34
2023-02-26T18:37:55.222Z,100563.84
2023-02-26T18:40:27.617Z,100567.31
2023-02-26T18:42:56.541Z,100570.67
2023-02-26T18:45:25.016Z,100579.77
2023-02-26T18:47:54.064Z,100583.34
2023-02-26T18:50:22.513Z,100588.58
2023-02-26T18:52:50.821Z,100592.27
2023-02-26T18:55:19.332Z,100591.60
2023-02-26T18:57:48.769Z,100592.27
2023-02-26T19:00:17.984Z,100595.42
2023-02-26T19:02:46.729Z,100604.83
2023-02-26T19:05:17.911Z,100606.64
2023-02-26T19:07:48.269Z,100609.92
2023-02-26T19:10:17.186Z,100612.55
2023-02-26T19:12:45.488Z,100615.21
2023-02-26T19:15:14.744Z,100616.89
2023-02-26T19:17:43.157Z,100621.77
2023-02-26T19:20:12.863Z,100624.80
2023-02-26T19:22:42.870Z,100627.19
2023-02-26T19:25:14.150Z,100630.73
2023-02-26T19:27:42.557Z,100630.58
2023-02-26T19:30:12.779Z,100634.16
2023-02-26T19:32:41.487Z,100635.05
2023-02-26T19:35:13.046Z,100636.41
2023-02-26T19:37:45.189Z,100636.40
2023-02-26T19:40:16.282Z,100638.81
2023-02-26T19:42:45.206Z,100640.84
2023-02-26T19:45:16.609Z,100644.25
2023-02-26T19:47:44.964Z,100650.29
2023-02-26T19:50:14.064Z,100652.13
2023-02-26T19:52:42.268Z,100652.64
2023-02-26T19:55:14.093Z,100651.83
2023-02-26T19:57:42.740Z,100653.00
2023-02-26T20:00:14.169Z,100659.43
2023-02-26T20:02:42.850Z,100661.00
2023-02-26T20:05:16.322Z,100662.20
2023-02-26T20:08:04.719Z,100667.99
2023-02-26T20:10:34.771Z,100673.59
2023-02-26T20:13:03.165Z,100677.34
2023-02-26T20:15:31.742Z,100676.05
2023-02-26T20:18:03.275Z,100681.88
2023-02-26T20:20:31.815Z,100681.90
2023-02-26T20:22:59.976Z,100686.36
2023-02-26T20:25:29.078Z,100687.93
2023-02-26T20:27:59.751Z,100689.48
2023-02-26T20:30:28.833Z,100692.39
2023-02-26T20:32:57.020Z,100694.73
2023-02-26T20:35:25.522Z,100696.88
2023-02-26T20:37:53.926Z,100702.46
2023-02-26T20:40:22.466Z,100702.44
2023-02-26T20:42:50.720Z,100708.16
2023-02-26T20:45:19.239Z,100713.73
2023-02-26T20:47:47.539Z,100714.94
2023-02-26T20:50:16.025Z,100716.99
2023-02-26T20:52:44.615Z,100718.55
2023-02-26T20:55:12.993Z,100716.06
2023-02-26T20:57:41.278Z,100718.34
2023-02-26T21:00:13.425Z,100722.80
2023-02-26T21:02:45.593Z,100719.84
2023-02-26T21:05:14.981Z,100724.24
2023-02-26T21:07:44.122Z,100725.00
2023-02-26T21:10:14.438Z,100723.19
2023-02-26T21:12:42.749Z,100730.30
2023-02-26T21:15:12.827Z,100732.25
2023-02-26T21:17:43.148Z,100734.33
2023-02-26T21:20:17.235Z,100735.90
2023-02-26T21:22:46.433Z,100736.91
2023-02-26T21:25:14.908Z,100742.48
2023-02-26T21:27:43.248Z,100745.66
2023-02-26T21:30:14.539Z,100746.65
2023-02-26T21:32:43.559Z,100751.92
2023-02-26T21:35:15.427Z,100750.45
2023-02-26T21:37:44.426Z,100755.02
2023-02-26T21:40:15.146Z,100753.15
2023-02-26T21:42:43.876Z,100755.01
2023-02-26T21:48:07.415Z,100763.64
2023-02-26T21:50:35.595Z,100765.98
2023-02-26T21:53:03.963Z,100770.56
2023-02-26T21:55:32.511Z,100770.71
2023-02-26T21:58:01.498Z,100774.23
2023-02-26T22:00:29.916Z,100773.36
2023-02-26T22:02:58.539Z,100772.00
2023-02-26T22:05:27.214Z,100772.96
2023-02-26T22:07:56.749Z,100773.75
2023-02-26T22:10:26.096Z,100776.89
2023-02-26T22:12:54.573Z,100777.73
2023-02-26T22:15:22.684Z,100780.35
2023-02-26T22:17:53.395Z,100782.71
2023-02-26T22:20:21.843Z,100788.27
2023-02-26T22:22:51.297Z,100790.13
2023-02-26T22:25:19.820Z,100792.54
2023-02-26T22:27:48.408Z,100798.96
2023-02-26T22:30:17.403Z,100802.18
2023-02-26T22:32:46.787Z,100804.34
2023-02-26T22:35:16.536Z,100805.84
2023-02-26T22:37:44.950Z,100808.00
2023-02-26T22:40:15.128Z,100811.67
2023-02-26T22:42:44.698Z,100811.61
2023-02-26T22:45:16.540Z,100811.06
2023-02-26T22:47:47.485Z,100808.11
2023-02-26T22:50:16.949Z,100808.75
2023-02-26T22:52:45.465Z,100810.55
2023-02-26T22:55:14.174Z,100808.70
2023-02-26T22:57:42.598Z,100809.89
2023-02-26T23:00:15.459Z,100813.92
2023-02-26T23:02:44.420Z,100815.58
2023-02-26T23:05:12.785Z,100817.59
2023-02-26T23:07:41.475Z,100814.50
2023-02-26T23:10:13.385Z,100817.52
2023-02-26T23:12:42.687Z,100815.16
2023-02-26T23:15:12.092Z,100820.54
2023-02-26T23:17:40.752Z,100825.09
2023-02-26T23:20:14.237Z,100835.36
2023-02-26T23:22:43.133Z,100842.73
2023-02-26T23:25:12.297Z,100846.71
2023-02-26T23:27:40.543Z,100853.94
2023-02-26T23:30:11.305Z,100853.68
2023-02-26T23:32:39.527Z,100850.13
2023-02-26T23:35:09.618Z,100856.58
2023-02-26T23:37:38.236Z,100856.29
2023-02-26T23:40:13.944Z,100853.06
2023-02-26T23:42:42.456Z,100856.30
2023-02-26T23:45:12.506Z,100854.61
2023-02-26T23:47:40.651Z,100856.98
2023-02-26T23:50:11.232Z,100858.34
2023-02-26T23:52:39.469Z,100861.01
2023-02-26T23:55:09.688Z,100868.20
2023-02-26T23:57:37.862Z,100871.91
